sensor_id;sensor_type;location;lat;lon;timestamp;P1;durP1;ratioP1;P2;durP2;ratioP2
26750;SDS011;14345;48.272;25.926;2022-12-16T00:00:10;47.25;;;32.22;;
26750;SDS011;14345;48.272;25.926;2022-12-16T00:02:37;53.67;;;35.08;;
26750;SDS011;14345;48.272;25.926;2022-12-16T03:41:22;41.83;;;28.55;;
26750;SDS011;14345;48.272;25.926;2022-12-16T03:43:48;39.67;;;26.65;;
26750;SDS011;14345;48.272;25.926;2022-12-16T03:46:14;47.50;;;30.38;;
26750;SDS011;14345;48.272;25.926;2022-12-16T03:48:45;42.05;;;28.63;;
26750;SDS011;14345;48.272;25.926;2022-12-16T03:51:11;44.50;;;29.60;;
26750;SDS011;14345;48.272;25.926;2022-12-16T03:53:37;47.58;;;31.48;;
26750;SDS011;14345;48.272;25.926;2022-12-16T03:56:04;45.88;;;30.60;;
26750;SDS011;14345;48.272;25.926;2022-12-16T03:58:30;48.35;;;30.98;;
26750;SDS011;14345;48.272;25.926;2022-12-16T04:00:56;47.85;;;30.88;;
26750;SDS011;14345;48.272;25.926;2022-12-16T04:03:22;44.00;;;28.48;;
26750;SDS011;14345;48.272;25.926;2022-12-16T04:05:48;44.97;;;29.30;;
26750;SDS011;14345;48.272;25.926;2022-12-16T04:08:14;42.55;;;27.88;;
26750;SDS011;14345;48.272;25.926;2022-12-16T04:10:40;37.30;;;24.90;;
26750;SDS011;14345;48.272;25.926;2022-12-16T04:13:24;40.85;;;27.98;;
26750;SDS011;14345;48.272;25.926;2022-12-16T04:16:13;41.58;;;28.38;;
26750;SDS011;14345;48.272;25.926;2022-12-16T04:18:59;39.85;;;26.52;;
26750;SDS011;14345;48.272;25.926;2022-12-16T04:21:44;35.40;;;23.83;;
26750;SDS011;14345;48.272;25.926;2022-12-16T04:24:28;36.70;;;24.15;;
26750;SDS011;14345;48.272;25.926;2022-12-16T04:26:55;33.80;;;23.35;;
26750;SDS011;14345;48.272;25.926;2022-12-16T04:29:39;34.47;;;22.20;;
26750;SDS011;14345;48.272;25.926;2022-12-16T04:32:24;28.30;;;20.45;;
26750;SDS011;14345;48.272;25.926;2022-12-16T04:34:50;29.00;;;20.73;;
26750;SDS011;14345;48.272;25.926;2022-12-16T04:37:17;33.97;;;22.33;;
26750;SDS011;14345;48.272;25.926;2022-12-16T04:40:02;30.58;;;20.50;;
26750;SDS011;14345;48.272;25.926;2022-12-16T04:42:47;31.30;;;21.73;;
26750;SDS011;14345;48.272;25.926;2022-12-16T04:45:32;28.35;;;19.08;;
26750;SDS011;14345;48.272;25.926;2022-12-16T04:48:16;25.23;;;18.02;;
26750;SDS011;14345;48.272;25.926;2022-12-16T04:51:01;24.98;;;17.33;;
26750;SDS011;14345;48.272;25.926;2022-12-16T04:53:45;21.25;;;15.52;;
26750;SDS011;14345;48.272;25.926;2022-12-16T04:56:30;19.83;;;15.15;;
26750;SDS011;14345;48.272;25.926;2022-12-16T04:59:14;16.75;;;13.27;;
26750;SDS011;14345;48.272;25.926;2022-12-16T05:01:59;18.90;;;14.02;;
26750;SDS011;14345;48.272;25.926;2022-12-16T05:04:44;18.48;;;12.85;;
26750;SDS011;14345;48.272;25.926;2022-12-16T05:07:28;17.05;;;12.70;;
26750;SDS011;14345;48.272;25.926;2022-12-16T05:10:13;18.27;;;13.52;;
26750;SDS011;14345;48.272;25.926;2022-12-16T05:13:17;15.63;;;11.65;;
26750;SDS011;14345;48.272;25.926;2022-12-16T05:16:01;19.58;;;12.60;;
26750;SDS011;14345;48.272;25.926;2022-12-16T05:18:46;15.68;;;11.18;;
26750;SDS011;14345;48.272;25.926;2022-12-16T05:21:38;17.13;;;12.88;;
26750;SDS011;14345;48.272;25.926;2022-12-16T05:24:23;16.92;;;12.23;;
26750;SDS011;14345;48.272;25.926;2022-12-16T05:27:08;12.77;;;10.05;;
26750;SDS011;14345;48.272;25.926;2022-12-16T05:29:52;15.02;;;10.75;;
26750;SDS011;14345;48.272;25.926;2022-12-16T05:32:37;15.52;;;11.55;;
26750;SDS011;14345;48.272;25.926;2022-12-16T05:35:21;14.43;;;10.25;;
26750;SDS011;14345;48.272;25.926;2022-12-16T05:38:06;12.55;;;9.88;;
26750;SDS011;14345;48.272;25.926;2022-12-16T05:40:50;12.60;;;9.55;;
26750;SDS011;14345;48.272;25.926;2022-12-16T05:43:35;14.00;;;9.88;;
26750;SDS011;14345;48.272;25.926;2022-12-16T05:46:19;15.00;;;10.65;;
26750;SDS011;14345;48.272;25.926;2022-12-16T05:49:04;12.52;;;9.45;;
26750;SDS011;14345;48.272;25.926;2022-12-16T05:51:49;12.63;;;9.25;;
26750;SDS011;14345;48.272;25.926;2022-12-16T05:54:33;15.38;;;10.68;;
26750;SDS011;14345;48.272;25.926;2022-12-16T05:57:17;11.68;;;8.73;;
26750;SDS011;14345;48.272;25.926;2022-12-16T10:43:51;25.58;;;19.70;;
26750;SDS011;14345;48.272;25.926;2022-12-16T10:46:37;26.58;;;18.83;;
26750;SDS011;14345;48.272;25.926;2022-12-16T10:49:21;28.00;;;21.08;;
26750;SDS011;14345;48.272;25.926;2022-12-16T10:52:08;25.67;;;18.40;;
26750;SDS011;14345;48.272;25.926;2022-12-16T10:58:00;33.97;;;23.08;;
26750;SDS011;14345;48.272;25.926;2022-12-16T11:00:48;29.13;;;21.45;;
26750;SDS011;14345;48.272;25.926;2022-12-16T11:03:34;31.40;;;21.98;;
26750;SDS011;14345;48.272;25.926;2022-12-16T11:06:21;33.45;;;23.38;;
26750;SDS011;14345;48.272;25.926;2022-12-16T11:09:19;32.28;;;22.58;;
26750;SDS011;14345;48.272;25.926;2022-12-16T11:14:58;30.80;;;21.52;;
26750;SDS011;14345;48.272;25.926;2022-12-16T11:17:59;35.92;;;24.27;;
26750;SDS011;14345;48.272;25.926;2022-12-16T11:20:44;30.08;;;21.13;;
26750;SDS011;14345;48.272;25.926;2022-12-16T11:23:28;32.40;;;21.48;;
26750;SDS011;14345;48.272;25.926;2022-12-16T11:29:14;28.17;;;19.77;;
26750;SDS011;14345;48.272;25.926;2022-12-16T11:32:09;33.58;;;22.02;;
26750;SDS011;14345;48.272;25.926;2022-12-16T11:35:00;30.70;;;21.88;;
26750;SDS011;14345;48.272;25.926;2022-12-16T11:37:45;35.70;;;21.35;;
26750;SDS011;14345;48.272;25.926;2022-12-16T11:40:31;27.98;;;19.88;;
26750;SDS011;14345;48.272;25.926;2022-12-16T11:43:16;26.42;;;18.13;;
26750;SDS011;14345;48.272;25.926;2022-12-16T11:46:03;28.60;;;18.73;;
26750;SDS011;14345;48.272;25.926;2022-12-16T11:48:58;37.25;;;22.90;;
26750;SDS011;14345;48.272;25.926;2022-12-16T11:54:29;29.67;;;19.30;;
26750;SDS011;14345;48.272;25.926;2022-12-16T11:57:21;29.60;;;18.27;;
26750;SDS011;14345;48.272;25.926;2022-12-16T12:00:12;28.98;;;19.58;;
26750;SDS011;14345;48.272;25.926;2022-12-16T16:38:56;41.95;;;29.65;;
26750;SDS011;14345;48.272;25.926;2022-12-16T16:41:41;47.17;;;30.80;;
26750;SDS011;14345;48.272;25.926;2022-12-16T16:44:25;42.00;;;28.42;;
26750;SDS011;14345;48.272;25.926;2022-12-16T16:47:14;43.63;;;28.38;;
26750;SDS011;14345;48.272;25.926;2022-12-16T16:50:02;45.15;;;28.83;;
26750;SDS011;14345;48.272;25.926;2022-12-16T16:52:47;44.75;;;29.05;;
26750;SDS011;14345;48.272;25.926;2022-12-16T16:55:32;47.20;;;30.25;;
26750;SDS011;14345;48.272;25.926;2022-12-16T16:58:24;48.25;;;30.55;;
26750;SDS011;14345;48.272;25.926;2022-12-16T17:01:14;46.28;;;30.70;;
26750;SDS011;14345;48.272;25.926;2022-12-16T17:03:59;49.80;;;32.10;;
26750;SDS011;14345;48.272;25.926;2022-12-16T17:06:43;48.13;;;32.42;;
26750;SDS011;14345;48.272;25.926;2022-12-16T17:09:28;58.03;;;38.53;;
26750;SDS011;14345;48.272;25.926;2022-12-16T17:12:23;54.45;;;34.72;;
26750;SDS011;14345;48.272;25.926;2022-12-16T17:18:02;52.58;;;35.15;;
26750;SDS011;14345;48.272;25.926;2022-12-16T17:20:47;47.15;;;31.73;;
26750;SDS011;14345;48.272;25.926;2022-12-16T17:23:32;42.67;;;29.67;;
26750;SDS011;14345;48.272;25.926;2022-12-16T17:26:16;41.60;;;29.30;;
26750;SDS011;14345;48.272;25.926;2022-12-16T17:29:01;40.13;;;29.27;;
26750;SDS011;14345;48.272;25.926;2022-12-16T17:31:46;46.40;;;31.83;;
26750;SDS011;14345;48.272;25.926;2022-12-16T17:34:31;41.20;;;28.60;;
26750;SDS011;14345;48.272;25.926;2022-12-16T17:37:15;44.38;;;30.88;;
26750;SDS011;14345;48.272;25.926;2022-12-16T17:40:00;49.05;;;33.63;;
26750;SDS011;14345;48.272;25.926;2022-12-16T17:42:44;46.88;;;32.50;;
26750;SDS011;14345;48.272;25.926;2022-12-16T17:45:29;52.22;;;33.97;;
26750;SDS011;14345;48.272;25.926;2022-12-16T17:48:13;46.75;;;31.80;;
26750;SDS011;14345;48.272;25.926;2022-12-16T17:51:00;49.70;;;33.78;;
26750;SDS011;14345;48.272;25.926;2022-12-16T17:53:44;44.80;;;28.75;;
26750;SDS011;14345;48.272;25.926;2022-12-16T17:56:29;53.30;;;34.90;;
26750;SDS011;14345;48.272;25.926;2022-12-16T17:59:13;51.53;;;33.25;;
26750;SDS011;14345;48.272;25.926;2022-12-16T19:14:55;43.47;;;30.20;;
26750;SDS011;14345;48.272;25.926;2022-12-16T19:17:39;41.75;;;28.80;;
26750;SDS011;14345;48.272;25.926;2022-12-16T19:20:24;52.88;;;34.92;;
26750;SDS011;14345;48.272;25.926;2022-12-16T19:23:08;44.70;;;31.50;;
26750;SDS011;14345;48.272;25.926;2022-12-16T19:25:56;43.13;;;29.42;;
26750;SDS011;14345;48.272;25.926;2022-12-16T19:28:41;54.08;;;34.78;;
26750;SDS011;14345;48.272;25.926;2022-12-16T19:31:27;60.15;;;39.83;;
26750;SDS011;14345;48.272;25.926;2022-12-16T19:34:12;58.17;;;38.72;;
26750;SDS011;14345;48.272;25.926;2022-12-16T19:36:56;50.38;;;34.80;;
26750;SDS011;14345;48.272;25.926;2022-12-16T19:39:41;63.15;;;39.25;;
26750;SDS011;14345;48.272;25.926;2022-12-16T19:42:26;56.05;;;35.95;;
26750;SDS011;14345;48.272;25.926;2022-12-16T19:45:10;55.20;;;38.92;;
26750;SDS011;14345;48.272;25.926;2022-12-16T19:47:59;52.00;;;34.70;;
26750;SDS011;14345;48.272;25.926;2022-12-16T19:50:43;51.33;;;34.63;;
26750;SDS011;14345;48.272;25.926;2022-12-16T19:53:28;53.22;;;36.58;;
26750;SDS011;14345;48.272;25.926;2022-12-16T19:56:13;50.85;;;34.45;;
26750;SDS011;14345;48.272;25.926;2022-12-16T19:58:58;48.75;;;33.25;;
26750;SDS011;14345;48.272;25.926;2022-12-16T20:01:42;49.80;;;34.08;;
26750;SDS011;14345;48.272;25.926;2022-12-16T20:04:27;49.67;;;33.65;;
26750;SDS011;14345;48.272;25.926;2022-12-16T20:07:11;65.40;;;42.35;;
26750;SDS011;14345;48.272;25.926;2022-12-16T20:09:56;60.28;;;38.00;;
26750;SDS011;14345;48.272;25.926;2022-12-16T20:12:40;61.28;;;39.00;;
26750;SDS011;14345;48.272;25.926;2022-12-16T20:15:25;53.95;;;35.63;;
26750;SDS011;14345;48.272;25.926;2022-12-16T20:18:09;51.80;;;34.05;;
26750;SDS011;14345;48.272;25.926;2022-12-16T20:20:54;53.40;;;34.33;;
26750;SDS011;14345;48.272;25.926;2022-12-16T20:23:38;54.28;;;34.42;;
26750;SDS011;14345;48.272;25.926;2022-12-16T20:26:23;52.72;;;34.72;;
26750;SDS011;14345;48.272;25.926;2022-12-16T20:29:07;49.20;;;33.00;;
26750;SDS011;14345;48.272;25.926;2022-12-16T20:31:52;43.63;;;30.02;;
26750;SDS011;14345;48.272;25.926;2022-12-16T20:34:37;44.80;;;29.73;;
26750;SDS011;14345;48.272;25.926;2022-12-16T20:37:21;46.03;;;30.48;;
26750;SDS011;14345;48.272;25.926;2022-12-16T20:40:06;46.45;;;30.23;;
26750;SDS011;14345;48.272;25.926;2022-12-16T20:42:51;44.17;;;30.08;;
26750;SDS011;14345;48.272;25.926;2022-12-16T20:45:35;43.10;;;29.77;;
26750;SDS011;14345;48.272;25.926;2022-12-16T20:48:20;47.30;;;31.17;;
26750;SDS011;14345;48.272;25.926;2022-12-16T20:51:04;42.10;;;29.23;;
26750;SDS011;14345;48.272;25.926;2022-12-16T20:53:49;43.53;;;30.08;;
26750;SDS011;14345;48.272;25.926;2022-12-16T20:56:34;52.40;;;34.28;;
26750;SDS011;14345;48.272;25.926;2022-12-16T20:59:19;45.13;;;30.27;;
26750;SDS011;14345;48.272;25.926;2022-12-16T21:02:04;41.00;;;28.40;;
26750;SDS011;14345;48.272;25.926;2022-12-16T21:04:48;47.20;;;30.73;;
26750;SDS011;14345;48.272;25.926;2022-12-16T21:07:33;53.25;;;36.65;;
26750;SDS011;14345;48.272;25.926;2022-12-16T21:10:18;50.08;;;33.42;;
26750;SDS011;14345;48.272;25.926;2022-12-16T21:13:06;46.85;;;32.60;;
26750;SDS011;14345;48.272;25.926;2022-12-16T21:15:52;44.67;;;30.17;;
26750;SDS011;14345;48.272;25.926;2022-12-16T21:18:36;45.05;;;31.98;;
26750;SDS011;14345;48.272;25.926;2022-12-16T21:21:21;45.13;;;30.75;;
26750;SDS011;14345;48.272;25.926;2022-12-16T21:24:06;43.70;;;30.20;;
26750;SDS011;14345;48.272;25.926;2022-12-16T21:26:50;49.80;;;33.17;;
26750;SDS011;14345;48.272;25.926;2022-12-16T21:29:35;43.83;;;31.10;;
26750;SDS011;14345;48.272;25.926;2022-12-16T21:32:19;41.88;;;28.67;;
26750;SDS011;14345;48.272;25.926;2022-12-16T21:35:04;39.47;;;27.13;;
26750;SDS011;14345;48.272;25.926;2022-12-16T21:37:50;37.92;;;26.98;;
26750;SDS011;14345;48.272;25.926;2022-12-16T21:40:35;39.72;;;27.80;;
26750;SDS011;14345;48.272;25.926;2022-12-16T21:43:19;40.40;;;28.50;;
26750;SDS011;14345;48.272;25.926;2022-12-16T21:46:04;39.95;;;27.02;;
26750;SDS011;14345;48.272;25.926;2022-12-16T21:48:48;49.83;;;33.65;;
26750;SDS011;14345;48.272;25.926;2022-12-16T21:51:33;56.72;;;36.47;;
26750;SDS011;14345;48.272;25.926;2022-12-16T21:54:18;48.95;;;34.80;;
26750;SDS011;14345;48.272;25.926;2022-12-16T21:57:03;46.92;;;30.90;;
26750;SDS011;14345;48.272;25.926;2022-12-16T21:59:47;46.85;;;31.13;;
26750;SDS011;14345;48.272;25.926;2022-12-16T22:02:32;62.75;;;38.97;;
26750;SDS011;14345;48.272;25.926;2022-12-16T22:05:16;54.25;;;37.42;;
26750;SDS011;14345;48.272;25.926;2022-12-16T22:08:05;56.30;;;40.08;;
26750;SDS011;14345;48.272;25.926;2022-12-16T22:10:50;67.50;;;49.72;;
26750;SDS011;14345;48.272;25.926;2022-12-16T22:13:35;58.75;;;42.30;;
26750;SDS011;14345;48.272;25.926;2022-12-16T22:16:19;57.13;;;40.22;;
26750;SDS011;14345;48.272;25.926;2022-12-16T22:19:04;57.60;;;38.63;;
26750;SDS011;14345;48.272;25.926;2022-12-16T22:21:48;50.55;;;34.70;;
26750;SDS011;14345;48.272;25.926;2022-12-16T22:24:33;45.60;;;31.05;;
26750;SDS011;14345;48.272;25.926;2022-12-16T22:27:17;43.20;;;29.75;;
26750;SDS011;14345;48.272;25.926;2022-12-16T22:30:02;45.65;;;30.75;;
26750;SDS011;14345;48.272;25.926;2022-12-16T22:32:47;39.47;;;28.17;;
26750;SDS011;14345;48.272;25.926;2022-12-16T22:35:32;38.55;;;26.05;;
26750;SDS011;14345;48.272;25.926;2022-12-16T22:38:17;38.97;;;28.30;;
26750;SDS011;14345;48.272;25.926;2022-12-16T22:41:01;38.40;;;26.38;;
26750;SDS011;14345;48.272;25.926;2022-12-16T22:43:46;38.13;;;26.02;;
26750;SDS011;14345;48.272;25.926;2022-12-16T22:46:30;33.60;;;24.45;;
26750;SDS011;14345;48.272;25.926;2022-12-16T22:49:15;35.63;;;25.80;;
26750;SDS011;14345;48.272;25.926;2022-12-16T22:52:00;37.10;;;25.30;;
26750;SDS011;14345;48.272;25.926;2022-12-16T22:54:45;43.30;;;28.02;;
26750;SDS011;14345;48.272;25.926;2022-12-16T22:57:30;38.00;;;25.65;;
26750;SDS011;14345;48.272;25.926;2022-12-16T23:00:15;35.78;;;24.63;;
26750;SDS011;14345;48.272;25.926;2022-12-16T23:03:00;38.72;;;25.90;;
26750;SDS011;14345;48.272;25.926;2022-12-16T23:05:45;36.40;;;25.42;;
26750;SDS011;14345;48.272;25.926;2022-12-16T23:08:29;40.83;;;29.00;;
26750;SDS011;14345;48.272;25.926;2022-12-16T23:11:30;44.85;;;31.42;;
26750;SDS011;14345;48.272;25.926;2022-12-16T23:14:16;45.88;;;32.00;;
26750;SDS011;14345;48.272;25.926;2022-12-16T23:17:01;50.33;;;33.75;;
26750;SDS011;14345;48.272;25.926;2022-12-16T23:19:46;49.28;;;31.67;;
26750;SDS011;14345;48.272;25.926;2022-12-16T23:22:31;44.08;;;30.60;;
26750;SDS011;14345;48.272;25.926;2022-12-16T23:25:15;42.67;;;28.63;;
26750;SDS011;14345;48.272;25.926;2022-12-16T23:28:00;45.20;;;30.20;;
26750;SDS011;14345;48.272;25.926;2022-12-16T23:30:49;39.28;;;26.60;;
26750;SDS011;14345;48.272;25.926;2022-12-16T23:33:34;35.53;;;26.20;;
26750;SDS011;14345;48.272;25.926;2022-12-16T23:36:19;35.60;;;28.38;;
26750;SDS011;14345;48.272;25.926;2022-12-16T23:39:03;35.45;;;26.55;;
26750;SDS011;14345;48.272;25.926;2022-12-16T23:41:48;38.78;;;29.45;;
26750;SDS011;14345;48.272;25.926;2022-12-16T23:44:32;38.80;;;30.00;;
26750;SDS011;14345;48.272;25.926;2022-12-16T23:47:17;44.33;;;32.10;;
26750;SDS011;14345;48.272;25.926;2022-12-16T23:50:02;42.25;;;30.17;;
26750;SDS011;14345;48.272;25.926;2022-12-16T23:52:46;45.17;;;33.10;;
26750;SDS011;14345;48.272;25.926;2022-12-16T23:55:31;46.65;;;33.25;;
26750;SDS011;14345;48.272;25.926;2022-12-16T23:58:16;49.03;;;33.47;;
